Leland, NC

4:26 PM EDT en Octubre 24, 2014 (GMT -0400)
NC STATE PORTS | Change Station
CLOSE
Current Station
Estación meteorológica personal
Location: WILMINGTON, NC
Altura: 12 ft
Estaciones meteorológicas cercanas

Alt 12 ft 34.20 °N, 77.95 °W | Updated 7 seconds ago

Despejado
Despejado
70.0 ° F
Sensación térmica 70.0 ° F
N
4.3
Viento Variable Viento desde Este
Gusts 9.0 mph

Hoy
Alta -- | Baja -- ° F
--% Posibilidad de precipitaciones
Ayer
Alta -- | Baja -- ° F
Precip. -- pul
7:25 AM 6:27 PM
Luna nueva, 1% visible
Presión 29.96 pul
Visibilidad 10.0 Millas
Nubes Despejado
Punto de rocío 55 ° F
Humedad 59%
Precipitaciones -999.00 pul
Espesor de la nieve No disponible.
UV 3 de una escala de 12
Polen 2.80 de una escala de 12
Calidad del aire No disponible.
Flu Activity Sporadic
METAR KILM 241953Z 29004KT 10SM CLR 22/08 A2996 RMK AO2 SLP145 T02170083

More Conditions Fewer Conditions

Presión 29.96 pul
Visibilidad 10.0 Millas
Nubes Despejado
Punto de rocío 55 ° F
Humedad 59%
Precipitaciones -999.00 pul
Espesor de la nieve No disponible.
UV 3 de una escala de 12
Polen 2.80 de una escala de 12
Calidad del aire No disponible.
Flu Activity Sporadic
METAR KILM 241953Z 29004KT 10SM CLR 22/08 A2996 RMK AO2 SLP145 T02170083

More Conditions Fewer Conditions

10-Day Weather Forecast

Almanac

Astronomía

Oct. 24, 2014 Salida Puesta
Hora real 7:25 AM EDT 6:27 PM EDT
Crepúsculo civil 6:59 AM EDT 6:52 PM EDT
Crepúsculo náutico 6:30 AM EDT 7:22 PM EDT
Crepúsculo astronómico 6:00 AM EDT 7:51 PM EDT
Luna 8:00 AM EDT 7:08 PM EDT
Horas de luz 11h 53m
Horas de luz
11h 02m
Tomorrow will be 1m 57s shorter.
Luna nueva, 1% of the Moon is Illuminated
Hoy
Luna nueva
Oct 30
Cuarto creciente
Nov 6
Luna llena
Nov 14
Cuarto menguante
Nov 22
Nueva

Extremos de hoy

Máximos del estado Bajos del estado

Community

WunderPhotos

Upload Photos

1,764,646 ¡fotos cargadas!

Nearby

Grosos de nieve

Estación Profundido Altura
No tenemos constancia de nieve nueva.

Actividad de terremotos

Ciudad Distance Mag. Tiempo y dato
No hay informes recientes de la actividad sísmica.
Magnitud mínima muestra es 2,5.

Temperaturas de aguas costeras

Lugar Temperatura
Johnny Mercer Pier, Wrightsville Beach, NC 73.0 ° F
Beaufort, NC 66.9 ° F
Springmaid Pier, SC 71.1 ° F

Estaciones meteorológicas cercanas